createdAt,value
2019-04-04T00:00:42.970Z,107.87
2019-04-04T00:03:11.465Z,117.90
2019-04-04T00:05:39.932Z,109.47
2019-04-04T00:08:08.372Z,115.80
2019-04-04T00:10:36.863Z,119.30
2019-04-04T00:13:05.336Z,115.20
2019-04-04T00:15:33.743Z,102.83
2019-04-04T00:18:02.207Z,105.10
2019-04-04T00:20:31.880Z,95.27
2019-04-04T00:23:00.898Z,77.67
2019-04-04T00:25:30.079Z,70.53
2019-04-04T00:27:58.503Z,73.17
2019-04-04T00:30:26.931Z,67.83
2019-04-04T00:32:55.383Z,63.40
2019-04-04T00:35:23.831Z,58.80
2019-04-04T00:37:52.270Z,56.30
2019-04-04T00:40:20.713Z,56.10
2019-04-04T00:42:49.161Z,54.97
2019-04-04T00:45:17.650Z,53.97
2019-04-04T00:47:46.165Z,60.03
2019-04-04T00:50:14.716Z,54.40
2019-04-04T00:52:43.153Z,50.97
2019-04-04T00:55:11.650Z,47.70
2019-04-04T00:57:40.103Z,48.20
2019-04-04T01:00:08.764Z,45.57
2019-04-04T01:02:37.215Z,59.33
2019-04-04T01:05:06.881Z,54.17
2019-04-04T01:07:35.807Z,49.93
2019-04-04T01:10:07.339Z,50.67
2019-04-04T01:12:35.755Z,50.60
2019-04-04T01:15:06.617Z,50.00
2019-04-04T01:17:35.752Z,47.37
2019-04-04T01:20:09.030Z,50.57
2019-04-04T01:22:37.651Z,54.87
2019-04-04T01:25:07.005Z,50.10
2019-04-04T01:27:36.970Z,52.57
2019-04-04T01:30:06.926Z,52.67
2019-04-04T01:32:35.535Z,53.47
2019-04-04T01:35:05.823Z,56.43
2019-04-04T01:37:34.239Z,53.47
2019-04-04T01:40:02.865Z,51.00
2019-04-04T01:42:31.358Z,50.63
2019-04-04T01:44:59.783Z,50.93
2019-04-04T01:47:28.220Z,50.87
2019-04-04T01:49:56.688Z,53.57
2019-04-04T01:52:27.831Z,48.47
2019-04-04T01:54:55.355Z,47.50
2019-04-04T01:57:23.774Z,44.77
2019-04-04T01:59:52.212Z,46.87
2019-04-04T02:02:20.703Z,48.13
2019-04-04T02:04:49.146Z,48.77
2019-04-04T02:07:17.586Z,46.23
2019-04-04T02:09:46.035Z,47.23
2019-04-04T02:12:14.823Z,43.70
2019-04-04T02:14:43.668Z,43.77
2019-04-04T02:17:12.082Z,43.50
2019-04-04T02:19:40.598Z,43.23
2019-04-04T02:22:09.067Z,46.47
2019-04-04T02:24:37.514Z,47.77
2019-04-04T02:27:07.015Z,50.17
2019-04-04T02:29:36.045Z,42.90
2019-04-04T02:32:06.214Z,47.03
2019-04-04T02:34:37.438Z,45.37
2019-04-04T02:37:04.803Z,44.53
2019-04-04T02:39:35.354Z,40.30
2019-04-04T02:42:03.659Z,43.93
2019-04-04T02:44:33.073Z,50.90
2019-04-04T02:47:01.667Z,43.10
2019-04-04T02:49:30.120Z,44.03
2019-04-04T02:51:58.659Z,46.47
2019-04-04T02:54:27.059Z,41.43
2019-04-04T02:56:55.491Z,44.97
2019-04-04T02:59:23.919Z,53.10
2019-04-04T03:01:52.352Z,45.50
2019-04-04T03:04:20.801Z,50.77
2019-04-04T03:06:49.193Z,61.03
2019-04-04T03:09:17.637Z,56.00
2019-04-04T03:11:46.057Z,53.23
2019-04-04T03:14:14.540Z,52.10
2019-04-04T03:16:43.015Z,61.20
2019-04-04T03:19:11.691Z,59.57
2019-04-04T03:21:40.102Z,55.70
2019-04-04T03:24:08.580Z,56.03
2019-04-04T03:26:37.072Z,56.33
2019-04-04T03:29:05.838Z,70.23
2019-04-04T03:31:37.293Z,63.10
2019-04-04T03:34:11.040Z,51.80
2019-04-04T03:36:36.066Z,73.00
2019-04-04T03:39:06.191Z,57.53
2019-04-04T03:41:35.995Z,58.90
2019-04-04T03:44:04.769Z,59.90
2019-04-04T03:46:38.399Z,55.83
2019-04-04T03:49:03.348Z,58.70
2019-04-04T03:51:31.784Z,55.03
2019-04-04T03:54:01.848Z,57.57
2019-04-04T03:56:33.317Z,58.00
2019-04-04T03:59:00.810Z,69.40
2019-04-04T04:01:29.301Z,78.97
2019-04-04T04:03:57.792Z,71.70
2019-04-04T04:06:26.296Z,90.07
2019-04-04T04:08:55.202Z,84.27
2019-04-04T04:11:23.818Z,87.97
2019-04-04T04:13:52.228Z,85.77
2019-04-04T04:16:20.658Z,83.83
2019-04-04T04:18:49.061Z,86.83
2019-04-04T04:21:17.510Z,80.83
2019-04-04T04:23:49.566Z,77.80
2019-04-04T04:26:16.052Z,79.43
2019-04-04T04:28:44.461Z,81.67
2019-04-04T04:31:15.250Z,68.20
2019-04-04T04:33:43.015Z,75.63
2019-04-04T04:36:15.270Z,77.20
2019-04-04T04:38:42.672Z,85.03
2019-04-04T04:41:11.105Z,92.77
2019-04-04T04:43:39.746Z,88.80
2019-04-04T04:46:08.252Z,85.13
2019-04-04T04:48:36.671Z,81.20
2019-04-04T04:51:05.241Z,81.07
2019-04-04T04:53:33.637Z,75.40
2019-04-04T04:56:02.587Z,70.27
2019-04-04T04:58:31.119Z,76.20
2019-04-04T05:00:59.521Z,66.77
2019-04-04T05:03:27.928Z,69.43
2019-04-04T05:05:56.365Z,66.87
2019-04-04T05:08:24.803Z,77.70
2019-04-04T05:10:53.210Z,82.67
2019-04-04T05:13:24.613Z,76.87
2019-04-04T05:15:51.736Z,81.53
2019-04-04T05:18:20.418Z,74.30
2019-04-04T05:20:48.815Z,68.27
2019-04-04T05:23:17.243Z,68.80
2019-04-04T05:25:53.836Z,64.83
2019-04-04T05:28:15.772Z,62.63
2019-04-04T05:30:45.110Z,66.90
2019-04-04T05:33:14.348Z,63.97
2019-04-04T05:35:42.841Z,72.37
2019-04-04T05:38:12.421Z,69.47
2019-04-04T05:40:41.372Z,68.17
2019-04-04T05:43:09.815Z,64.97
2019-04-04T05:45:38.254Z,66.23
2019-04-04T05:48:06.719Z,58.83
2019-04-04T05:50:35.141Z,56.07
2019-04-04T05:53:04.317Z,64.63
2019-04-04T05:55:33.255Z,68.10
2019-04-04T05:58:01.813Z,64.30
2019-04-04T06:00:30.237Z,67.83
2019-04-04T06:02:58.740Z,57.03
2019-04-04T06:05:27.855Z,69.83
2019-04-04T06:07:56.393Z,67.53
2019-04-04T06:10:24.807Z,62.93
2019-04-04T06:12:54.342Z,63.53
2019-04-04T06:15:23.363Z,69.83
2019-04-04T06:17:51.760Z,61.07
2019-04-04T06:20:20.240Z,61.23
2019-04-04T06:22:50.029Z,67.70
2019-04-04T06:25:18.821Z,66.67
2019-04-04T06:27:47.271Z,66.53
2019-04-04T06:30:15.890Z,68.60
2019-04-04T06:32:44.291Z,68.83
2019-04-04T06:35:13.338Z,74.87
2019-04-04T06:37:45.836Z,70.27
2019-04-04T06:40:13.391Z,66.97
2019-04-04T06:42:41.793Z,62.80
2019-04-04T06:45:10.205Z,64.87
2019-04-04T06:47:38.608Z,68.87
2019-04-04T06:50:08.233Z,65.53
2019-04-04T06:52:36.879Z,63.60
2019-04-04T06:55:06.831Z,59.93
2019-04-04T06:57:36.770Z,64.20
2019-04-04T07:00:08.779Z,69.77
2019-04-04T07:02:37.183Z,58.20
2019-04-04T07:05:10.299Z,60.87
2019-04-04T07:07:37.668Z,57.67
2019-04-04T07:10:06.229Z,57.13
2019-04-04T07:12:37.812Z,56.23
2019-04-04T07:15:07.198Z,58.03
2019-04-04T07:17:35.623Z,57.30
2019-04-04T07:20:05.865Z,58.53
2019-04-04T07:22:34.295Z,58.30
2019-04-04T07:25:05.733Z,55.33
2019-04-04T07:27:33.644Z,59.83
2019-04-04T07:30:02.049Z,57.63
2019-04-04T07:32:30.504Z,53.60
2019-04-04T07:34:58.923Z,52.40
2019-04-04T07:37:27.319Z,50.27
2019-04-04T07:39:55.752Z,45.33
2019-04-04T07:42:24.215Z,47.80
2019-04-04T07:44:54.442Z,45.60
2019-04-04T07:47:22.763Z,46.13
2019-04-04T07:49:53.218Z,46.80
2019-04-04T07:52:21.315Z,40.67
2019-04-04T07:54:49.745Z,43.27
2019-04-04T07:57:19.765Z,37.40
2019-04-04T07:59:48.428Z,39.77
2019-04-04T08:02:16.931Z,37.67
2019-04-04T08:04:45.395Z,37.90
2019-04-04T08:07:13.888Z,38.33
2019-04-04T08:09:42.287Z,32.07
2019-04-04T08:12:10.789Z,35.13
2019-04-04T08:14:39.215Z,37.17
2019-04-04T08:17:07.675Z,35.10
2019-04-04T08:19:36.088Z,35.00
2019-04-04T08:22:04.549Z,36.97
2019-04-04T08:24:33.097Z,36.13
2019-04-04T08:27:01.559Z,31.77
2019-04-04T08:29:30.221Z,31.83
2019-04-04T08:31:58.613Z,34.03
2019-04-04T08:34:27.044Z,37.00
2019-04-04T08:36:55.449Z,34.03
2019-04-04T08:39:23.939Z,36.70
2019-04-04T08:41:52.610Z,31.80
2019-04-04T08:44:21.169Z,30.73
2019-04-04T08:46:49.599Z,34.27
2019-04-04T08:49:18.005Z,32.30
2019-04-04T08:51:46.411Z,31.37
2019-04-04T08:54:14.836Z,32.73
2019-04-04T08:56:43.245Z,28.93
2019-04-04T08:59:11.673Z,27.73
2019-04-04T09:01:40.068Z,32.13
2019-04-04T09:04:08.497Z,26.13
2019-04-04T09:06:36.910Z,24.93
2019-04-04T09:09:06.869Z,25.43
2019-04-04T09:11:35.266Z,24.20
2019-04-04T09:14:04.125Z,27.20
2019-04-04T09:16:32.654Z,28.63
2019-04-04T09:19:01.137Z,30.03
2019-04-04T09:21:29.788Z,28.27
2019-04-04T09:24:00.526Z,25.67
2019-04-04T09:26:28.405Z,25.73
2019-04-04T09:28:56.828Z,28.10
2019-04-04T09:31:25.266Z,26.07
2019-04-04T09:33:53.652Z,26.63
2019-04-04T09:36:22.088Z,23.47
2019-04-04T09:38:50.499Z,22.67
2019-04-04T09:41:19.141Z,26.87
2019-04-04T09:43:47.576Z,25.90
2019-04-04T09:46:15.993Z,24.53
2019-04-04T09:48:44.416Z,26.07
2019-04-04T09:51:12.861Z,24.33
2019-04-04T09:53:53.043Z,28.43
2019-04-04T09:56:11.436Z,28.43
2019-04-04T09:58:39.868Z,27.30
2019-04-04T10:01:08.282Z,24.23
2019-04-04T10:03:36.731Z,24.10
2019-04-04T10:06:05.237Z,25.40
2019-04-04T10:08:33.644Z,26.17
2019-04-04T10:11:02.171Z,24.03
2019-04-04T10:13:30.605Z,25.63
2019-04-04T10:15:59.019Z,24.57
2019-04-04T10:18:27.423Z,24.47
2019-04-04T10:20:55.921Z,24.23
2019-04-04T10:23:24.343Z,22.93
2019-04-04T10:25:52.771Z,21.53
2019-04-04T10:28:23.286Z,22.57
2019-04-04T10:30:51.560Z,19.47
2019-04-04T10:33:19.996Z,22.97
2019-04-04T10:35:48.524Z,24.90
2019-04-04T10:38:16.994Z,22.20
2019-04-04T10:40:45.419Z,22.57
2019-04-04T10:43:13.835Z,23.37
2019-04-04T10:45:42.281Z,23.23
2019-04-04T10:48:10.732Z,23.30
2019-04-04T10:50:39.211Z,24.80
2019-04-04T10:53:07.690Z,23.70
2019-04-04T10:55:36.195Z,24.73
2019-04-04T10:58:04.719Z,26.87
2019-04-04T11:00:33.135Z,23.67
2019-04-04T11:03:01.596Z,26.17
2019-04-04T11:05:30.039Z,27.17
2019-04-04T11:07:58.485Z,28.10
2019-04-04T11:10:26.931Z,30.47
2019-04-04T11:12:55.393Z,27.53
2019-04-04T11:15:23.824Z,24.20
2019-04-04T11:17:52.245Z,27.03
2019-04-04T11:20:20.663Z,27.87
2019-04-04T11:22:49.084Z,29.20
2019-04-04T11:25:17.540Z,29.57
2019-04-04T11:27:45.972Z,28.90
2019-04-04T11:30:14.829Z,31.07
2019-04-04T11:32:43.291Z,25.77
2019-04-04T11:35:11.902Z,27.97
2019-04-04T11:37:40.309Z,29.33
2019-04-04T11:40:09.185Z,31.10
2019-04-04T11:42:37.617Z,32.37
2019-04-04T11:45:06.304Z,31.60
2019-04-04T11:47:34.709Z,31.63
2019-04-04T11:50:04.789Z,34.90
2019-04-04T11:52:33.187Z,31.67
2019-04-04T11:55:02.213Z,30.87
2019-04-04T11:57:30.667Z,33.40
2019-04-04T11:59:59.079Z,34.47
2019-04-04T12:02:28.754Z,33.53
2019-04-04T12:04:57.890Z,32.87
2019-04-04T12:07:26.428Z,34.20
2019-04-04T12:10:06.748Z,33.57
2019-04-04T12:12:25.071Z,32.20
2019-04-04T12:14:53.483Z,32.57
2019-04-04T12:17:21.896Z,35.20
2019-04-04T12:19:50.320Z,36.60
2019-04-04T12:22:18.788Z,35.53
2019-04-04T12:24:47.504Z,33.20
2019-04-04T12:27:15.952Z,35.53
2019-04-04T12:29:44.354Z,37.47
2019-04-04T12:32:12.793Z,36.13
2019-04-04T12:34:41.359Z,35.37
2019-04-04T12:37:09.819Z,35.70
2019-04-04T12:39:38.301Z,36.50
2019-04-04T12:42:06.736Z,34.10
2019-04-04T12:44:35.160Z,37.17
2019-04-04T12:47:03.650Z,38.20
2019-04-04T12:49:32.077Z,42.50
2019-04-04T12:52:00.512Z,39.10
2019-04-04T12:54:28.951Z,38.77
2019-04-04T12:56:57.406Z,37.47
2019-04-04T12:59:25.923Z,35.07
2019-04-04T13:01:54.331Z,35.37
2019-04-04T13:04:31.175Z,36.60
2019-04-04T13:06:52.967Z,31.07
2019-04-04T13:09:21.416Z,35.97
2019-04-04T13:11:49.909Z,35.80
2019-04-04T13:14:18.915Z,34.37
2019-04-04T13:16:47.331Z,32.97
2019-04-04T13:19:15.774Z,32.73
2019-04-04T13:21:44.176Z,34.33
2019-04-04T13:24:12.603Z,31.37
2019-04-04T13:26:41.042Z,30.13
2019-04-04T13:29:09.520Z,29.87
2019-04-04T13:31:37.952Z,28.20
2019-04-04T13:34:06.354Z,27.10
2019-04-04T13:36:36.669Z,25.90
2019-04-04T13:39:09.443Z,25.73
2019-04-04T13:41:38.351Z,25.57
2019-04-04T13:44:06.843Z,25.97
2019-04-04T13:46:35.292Z,23.83
2019-04-04T13:49:03.771Z,22.97
2019-04-04T13:51:32.309Z,25.47
2019-04-04T13:54:00.736Z,27.10
2019-04-04T13:56:29.425Z,29.70
2019-04-04T13:59:01.190Z,27.97
2019-04-04T14:01:28.119Z,27.97
2019-04-04T14:03:56.568Z,30.50
2019-04-04T14:06:24.995Z,27.60
2019-04-04T14:08:53.415Z,28.13
2019-04-04T14:11:21.840Z,28.87
2019-04-04T14:13:50.309Z,28.90
2019-04-04T14:16:18.817Z,31.23
2019-04-04T14:18:47.229Z,28.57
2019-04-04T14:21:15.690Z,28.30
2019-04-04T14:23:45.400Z,28.20
2019-04-04T14:26:13.996Z,29.30
2019-04-04T14:28:42.420Z,32.60
2019-04-04T14:31:10.880Z,32.47
2019-04-04T14:33:39.340Z,33.17
2019-04-04T14:36:07.768Z,35.37
2019-04-04T14:38:36.188Z,34.10
2019-04-04T14:41:11.007Z,37.83
2019-04-04T14:43:35.189Z,37.77
2019-04-04T14:46:03.660Z,37.90
2019-04-04T14:48:32.076Z,35.53
2019-04-04T14:51:00.514Z,39.33
2019-04-04T14:53:28.964Z,39.23
2019-04-04T14:55:57.428Z,36.97
2019-04-04T14:58:25.880Z,37.00
2019-04-04T15:00:54.358Z,38.37
2019-04-04T15:03:22.790Z,35.03
2019-04-04T15:05:51.208Z,37.70
2019-04-04T15:08:19.635Z,36.13
2019-04-04T15:10:48.075Z,35.17
2019-04-04T15:13:16.571Z,40.03
2019-04-04T15:16:11.014Z,41.70
2019-04-04T15:18:39.431Z,34.93
2019-04-04T15:21:09.503Z,39.93
2019-04-04T15:23:38.196Z,41.33
2019-04-04T15:26:09.527Z,39.70
2019-04-04T15:28:36.959Z,38.77
2019-04-04T15:31:05.592Z,41.63
2019-04-04T15:33:34.018Z,39.20
2019-04-04T15:36:02.591Z,44.10
2019-04-04T15:38:31.031Z,43.40
2019-04-04T15:40:59.439Z,39.97
2019-04-04T15:43:28.036Z,40.70
2019-04-04T15:45:56.498Z,42.93
2019-04-04T15:48:25.155Z,43.50
2019-04-04T15:50:53.573Z,41.57
2019-04-04T15:53:22.011Z,44.63
2019-04-04T15:55:50.434Z,43.33
2019-04-04T15:58:18.915Z,44.63
2019-04-04T16:00:47.307Z,45.53
2019-04-04T16:03:15.734Z,45.10
2019-04-04T16:05:44.152Z,46.43
2019-04-04T16:08:12.844Z,46.30
2019-04-04T16:10:41.265Z,44.67
2019-04-04T16:13:09.725Z,47.53
2019-04-04T16:15:38.140Z,47.83
2019-04-04T16:18:06.571Z,44.97
2019-04-04T16:20:35.037Z,49.47
2019-04-04T16:23:04.133Z,50.87
2019-04-04T16:25:32.571Z,47.37
2019-04-04T16:28:01.014Z,49.73
2019-04-04T16:30:29.571Z,51.13
2019-04-04T16:32:58.011Z,47.97
2019-04-04T16:35:26.434Z,47.23
2019-04-04T16:37:54.846Z,48.70
2019-04-04T16:40:23.263Z,49.13
2019-04-04T16:42:51.679Z,47.63
2019-04-04T16:45:20.188Z,47.70
2019-04-04T16:47:48.592Z,46.73
2019-04-04T16:50:17.433Z,48.97
2019-04-04T16:52:45.848Z,50.13
2019-04-04T16:55:14.459Z,49.27
2019-04-04T16:57:43.525Z,51.73
2019-04-04T17:00:13.316Z,53.33
2019-04-04T17:02:41.795Z,52.77
2019-04-04T17:05:11.136Z,56.13
2019-04-04T17:07:39.803Z,49.97
2019-04-04T17:10:09.155Z,50.07
2019-04-04T17:12:37.582Z,51.13
2019-04-04T17:15:07.548Z,54.43
2019-04-04T17:17:35.957Z,50.63
2019-04-04T17:20:06.631Z,49.60
2019-04-04T17:22:35.061Z,52.13
2019-04-04T17:25:04.000Z,44.30
2019-04-04T17:27:32.485Z,46.93
2019-04-04T17:30:01.302Z,45.87
2019-04-04T17:32:29.755Z,40.17
2019-04-04T17:34:58.233Z,32.40
2019-04-04T17:37:26.710Z,31.70
2019-04-04T17:39:55.676Z,27.83
2019-04-04T17:42:30.748Z,31.80
2019-04-04T17:44:54.874Z,26.33
2019-04-04T17:47:23.767Z,23.67
2019-04-04T17:49:52.514Z,24.70
2019-04-04T17:52:20.961Z,26.60
2019-04-04T17:54:49.934Z,30.50
2019-04-04T17:57:21.318Z,24.27
2019-04-04T17:59:49.812Z,28.50
2019-04-04T18:02:18.260Z,26.17
2019-04-04T18:04:48.479Z,25.93
2019-04-04T18:07:16.820Z,27.03
2019-04-04T18:09:45.748Z,25.60
2019-04-04T18:12:16.760Z,25.93
2019-04-04T18:14:44.441Z,26.93
2019-04-04T18:17:12.864Z,25.10
2019-04-04T18:19:41.263Z,24.77
2019-04-04T18:22:09.693Z,26.57
2019-04-04T18:24:38.128Z,26.70
2019-04-04T18:27:06.536Z,29.93
2019-04-04T18:29:34.964Z,28.03
2019-04-04T18:32:03.397Z,26.73
2019-04-04T18:34:31.803Z,27.30
2019-04-04T18:37:00.308Z,22.30
2019-04-04T18:39:28.742Z,27.90
2019-04-04T18:41:57.201Z,27.37
2019-04-04T18:44:25.670Z,29.90
2019-04-04T18:46:54.156Z,27.63
2019-04-04T18:49:22.588Z,24.30
2019-04-04T18:51:51.001Z,31.07
2019-04-04T18:54:19.435Z,26.60
2019-04-04T18:56:47.856Z,29.00
2019-04-04T18:59:16.267Z,27.93
2019-04-04T19:01:44.768Z,32.90
2019-04-04T19:04:13.241Z,33.03
2019-04-04T19:06:41.651Z,26.90
2019-04-04T19:09:15.059Z,32.47
2019-04-04T19:11:42.080Z,28.30
2019-04-04T19:14:10.514Z,29.40
2019-04-04T19:16:39.244Z,35.90
2019-04-04T19:19:07.724Z,33.97
2019-04-04T19:21:36.149Z,35.40
2019-04-04T19:24:04.951Z,31.40
2019-04-04T19:26:33.471Z,29.73
2019-04-04T19:29:01.875Z,39.13
2019-04-04T19:31:30.539Z,30.30
2019-04-04T19:33:59.032Z,28.27
2019-04-04T19:36:27.472Z,32.87
2019-04-04T19:38:55.957Z,32.27
2019-04-04T19:41:24.368Z,34.00
2019-04-04T19:43:52.787Z,30.83
2019-04-04T19:46:21.275Z,33.17
2019-04-04T19:48:49.829Z,32.47
2019-04-04T19:51:18.350Z,30.77
2019-04-04T19:53:46.769Z,29.83
2019-04-04T19:56:15.179Z,30.00
2019-04-04T19:58:43.614Z,33.50
2019-04-04T20:01:12.020Z,34.87
2019-04-04T20:03:40.454Z,31.40
2019-04-04T20:06:09.093Z,32.03
2019-04-04T20:08:37.575Z,47.00
2019-04-04T20:11:05.984Z,37.90
2019-04-04T20:13:34.420Z,38.30
2019-04-04T20:16:03.700Z,37.80
2019-04-04T20:18:32.144Z,38.97
2019-04-04T20:21:00.532Z,44.77
2019-04-04T20:23:28.956Z,40.47
2019-04-04T20:25:57.384Z,42.90
2019-04-04T20:28:25.779Z,43.83
2019-04-04T20:30:54.209Z,48.10
2019-04-04T20:33:22.935Z,47.57
2019-04-04T20:35:51.357Z,48.00
2019-04-04T20:38:19.806Z,46.47
2019-04-04T20:40:48.259Z,43.90
2019-04-04T20:43:16.683Z,49.77
2019-04-04T20:45:45.108Z,45.47
2019-04-04T20:48:13.521Z,51.50
2019-04-04T20:50:41.957Z,50.60
2019-04-04T20:53:10.379Z,52.03
2019-04-04T20:55:39.027Z,55.30
2019-04-04T20:58:07.625Z,49.33
2019-04-04T21:00:36.012Z,54.60
2019-04-04T21:03:04.508Z,46.47
2019-04-04T21:05:33.032Z,47.87
2019-04-04T21:08:01.444Z,54.77
2019-04-04T21:10:30.103Z,57.13
2019-04-04T21:12:58.552Z,53.40
2019-04-04T21:15:26.971Z,57.37
2019-04-04T21:17:55.371Z,60.47
2019-04-04T21:20:23.795Z,54.93
2019-04-04T21:22:52.264Z,54.10
2019-04-04T21:25:20.687Z,59.33
2019-04-04T21:27:49.099Z,56.00
2019-04-04T21:30:17.832Z,58.27
2019-04-04T21:32:46.269Z,62.20
2019-04-04T21:35:14.707Z,60.80
2019-04-04T21:37:43.357Z,60.67
2019-04-04T21:40:11.953Z,63.90
2019-04-04T21:42:40.364Z,58.90
2019-04-04T21:45:09.115Z,53.00
2019-04-04T21:47:37.599Z,59.43
2019-04-04T21:50:07.876Z,58.30
2019-04-04T21:52:36.848Z,58.17
2019-04-04T21:55:06.359Z,61.20
2019-04-04T21:57:34.830Z,61.73
2019-04-04T22:00:03.823Z,65.43
2019-04-04T22:02:32.487Z,67.63
2019-04-04T22:05:00.991Z,68.43
2019-04-04T22:07:29.493Z,64.20
2019-04-04T22:09:57.929Z,69.07
2019-04-04T22:12:26.355Z,81.17
2019-04-04T22:14:54.782Z,81.60
2019-04-04T22:17:23.196Z,83.90
2019-04-04T22:19:51.619Z,83.43
2019-04-04T22:22:20.055Z,88.00
2019-04-04T22:24:48.464Z,105.80
2019-04-04T22:27:17.140Z,96.77
2019-04-04T22:29:45.566Z,99.73
2019-04-04T22:32:13.980Z,99.43
2019-04-04T22:34:42.672Z,109.17
2019-04-04T22:37:11.081Z,100.43
2019-04-04T22:39:39.493Z,103.93
2019-04-04T22:42:07.932Z,112.20
2019-04-04T22:44:36.367Z,119.70
2019-04-04T22:47:04.849Z,114.30
2019-04-04T22:49:33.279Z,115.63
2019-04-04T22:52:01.689Z,115.80
2019-04-04T22:54:30.146Z,123.20
2019-04-04T22:56:58.612Z,127.70
2019-04-04T22:59:27.031Z,120.97
2019-04-04T23:01:55.471Z,111.30
2019-04-04T23:04:23.963Z,115.43
2019-04-04T23:06:52.371Z,100.77
2019-04-04T23:09:20.812Z,107.70
2019-04-04T23:11:49.246Z,99.93
2019-04-04T23:14:17.654Z,105.93
2019-04-04T23:16:46.062Z,104.23
2019-04-04T23:19:14.506Z,105.80
2019-04-04T23:21:42.914Z,104.53
2019-04-04T23:24:11.331Z,99.60
2019-04-04T23:26:39.743Z,100.33
2019-04-04T23:29:08.180Z,104.50
2019-04-04T23:31:36.624Z,102.13
2019-04-04T23:34:05.117Z,111.57
2019-04-04T23:36:35.034Z,106.43
2019-04-04T23:39:05.207Z,114.00
2019-04-04T23:41:33.620Z,115.07
2019-04-04T23:44:02.044Z,123.00
2019-04-04T23:46:30.461Z,123.73
2019-04-04T23:48:58.883Z,126.60
2019-04-04T23:51:27.287Z,134.67
2019-04-04T23:53:55.723Z,142.27
2019-04-04T23:56:24.122Z,141.97
2019-04-04T23:58:52.558Z,141.33
